createdAt,value
2023-05-21T00:01:08.034Z,43.80
2023-05-21T00:03:36.239Z,43.80
2023-05-21T00:06:04.035Z,43.50
2023-05-21T00:08:31.155Z,43.70
2023-05-21T00:10:58.062Z,43.90
2023-05-21T00:13:24.944Z,43.80
2023-05-21T00:15:51.850Z,43.90
2023-05-21T00:18:18.866Z,43.90
2023-05-21T00:20:45.812Z,44.30
2023-05-21T00:23:12.924Z,44.50
2023-05-21T00:25:39.701Z,44.50
2023-05-21T00:28:06.660Z,44.30
2023-05-21T00:30:33.450Z,44.50
2023-05-21T00:33:02.867Z,44.50
2023-05-21T00:35:30.122Z,44.30
2023-05-21T00:37:57.316Z,44.50
2023-05-21T00:40:24.414Z,44.70
2023-05-21T00:42:51.291Z,45.00
2023-05-21T00:45:18.208Z,44.80
2023-05-21T00:47:45.968Z,44.90
2023-05-21T00:50:14.944Z,44.80
2023-05-21T00:52:43.990Z,45.00
2023-05-21T00:55:10.962Z,44.70
2023-05-21T00:57:39.591Z,44.90
2023-05-21T01:00:09.012Z,44.90
2023-05-21T01:02:37.331Z,45.30
2023-05-21T01:05:06.681Z,45.10
2023-05-21T01:07:39.046Z,44.90
2023-05-21T01:10:08.500Z,44.90
2023-05-21T01:12:37.059Z,44.80
2023-05-21T01:15:04.990Z,44.70
2023-05-21T01:17:34.253Z,45.20
2023-05-21T01:20:01.889Z,44.80
2023-05-21T01:22:32.360Z,45.10
2023-05-21T01:25:02.733Z,45.30
2023-05-21T01:27:29.713Z,45.30
2023-05-21T01:29:57.141Z,45.50
2023-05-21T01:32:38.718Z,45.20
2023-05-21T01:35:11.216Z,45.10
2023-05-21T01:37:48.381Z,44.80
2023-05-21T01:40:22.623Z,45.50
2023-05-21T01:42:49.593Z,44.90
2023-05-21T01:45:17.654Z,44.90
2023-05-21T01:47:49.281Z,45.10
2023-05-21T01:50:18.153Z,44.90
2023-05-21T01:52:56.907Z,45.50
2023-05-21T01:55:24.741Z,45.30
2023-05-21T01:57:55.977Z,45.20
2023-05-21T02:00:24.599Z,45.30
2023-05-21T02:02:51.981Z,45.20
2023-05-21T02:05:18.865Z,45.40
2023-05-21T02:07:47.454Z,45.60
2023-05-21T02:10:14.291Z,45.90
2023-05-21T02:12:41.085Z,46.10
2023-05-21T02:15:08.074Z,45.70
2023-05-21T02:17:35.398Z,45.90
2023-05-21T02:20:11.239Z,45.60
2023-05-21T02:22:46.394Z,45.50
2023-05-21T02:25:15.884Z,45.30
2023-05-21T02:27:43.400Z,45.50
2023-05-21T02:30:12.197Z,45.90
2023-05-21T02:32:43.265Z,45.50
2023-05-21T02:35:12.277Z,45.60
2023-05-21T02:37:44.244Z,45.60
2023-05-21T02:40:12.247Z,45.60
2023-05-21T02:42:41.192Z,45.80
2023-05-21T02:45:12.413Z,45.50
2023-05-21T02:47:39.433Z,45.70
2023-05-21T02:50:07.798Z,45.70
2023-05-21T02:52:34.763Z,45.60
2023-05-21T02:55:01.546Z,45.70
2023-05-21T02:57:28.312Z,45.70
2023-05-21T02:59:55.107Z,45.70
2023-05-21T03:02:22.018Z,45.60
2023-05-21T03:04:48.939Z,45.50
2023-05-21T03:07:19.038Z,45.60
2023-05-21T03:09:46.124Z,45.40
2023-05-21T03:12:13.426Z,45.30
2023-05-21T03:14:40.211Z,45.20
2023-05-21T03:17:07.866Z,45.60
2023-05-21T03:19:36.284Z,45.60
2023-05-21T03:22:03.754Z,45.80
2023-05-21T03:24:31.818Z,45.90
2023-05-21T03:26:59.337Z,46.20
2023-05-21T03:29:26.189Z,46.40
2023-05-21T03:31:56.828Z,46.20
2023-05-21T03:34:24.339Z,46.40
2023-05-21T03:36:51.121Z,46.20
2023-05-21T03:39:18.380Z,46.20
2023-05-21T03:41:45.389Z,46.20
2023-05-21T03:44:12.216Z,46.40
2023-05-21T03:46:39.171Z,46.20
2023-05-21T03:49:06.202Z,47.10
2023-05-21T03:51:33.105Z,46.70
2023-05-21T03:54:01.341Z,46.60
2023-05-21T03:56:28.259Z,46.80
2023-05-21T03:58:55.092Z,46.50
2023-05-21T04:01:22.043Z,46.40
2023-05-21T04:03:48.943Z,46.70
2023-05-21T04:06:15.984Z,46.50
2023-05-21T04:08:43.089Z,46.40
2023-05-21T04:11:10.984Z,46.80
2023-05-21T04:13:38.806Z,46.70
2023-05-21T04:16:09.020Z,46.90
2023-05-21T04:18:35.991Z,47.70
2023-05-21T04:21:02.849Z,46.90
2023-05-21T04:23:29.691Z,47.00
2023-05-21T04:25:56.507Z,46.90
2023-05-21T04:28:24.213Z,47.20
2023-05-21T04:30:51.165Z,47.30
2023-05-21T04:33:18.519Z,47.40
2023-05-21T04:35:50.054Z,47.10
2023-05-21T04:38:19.837Z,47.20
2023-05-21T04:40:53.517Z,47.20
2023-05-21T04:43:26.114Z,47.30
2023-05-21T04:45:55.003Z,47.10
2023-05-21T04:48:27.159Z,47.30
2023-05-21T04:50:56.042Z,47.30
2023-05-21T04:53:26.048Z,47.50
2023-05-21T04:55:53.103Z,47.20
2023-05-21T04:58:19.943Z,47.00
2023-05-21T05:00:47.115Z,47.00
2023-05-21T05:03:14.600Z,46.90
2023-05-21T05:05:41.960Z,47.00
2023-05-21T05:08:08.812Z,47.00
2023-05-21T05:10:36.234Z,47.00
2023-05-21T05:13:03.151Z,46.90
2023-05-21T05:15:29.952Z,47.10
2023-05-21T05:17:56.838Z,47.30
2023-05-21T05:20:23.638Z,47.70
2023-05-21T05:22:50.505Z,47.40
2023-05-21T05:25:17.374Z,47.50
2023-05-21T05:27:44.268Z,47.20
2023-05-21T05:30:11.529Z,47.50
2023-05-21T05:32:38.453Z,47.20
2023-05-21T05:35:06.024Z,47.40
2023-05-21T05:37:33.652Z,47.50
2023-05-21T05:40:00.569Z,47.30
2023-05-21T05:42:27.350Z,47.20
2023-05-21T05:44:54.099Z,47.40
2023-05-21T05:47:21.857Z,47.60
2023-05-21T05:49:48.732Z,47.50
2023-05-21T05:52:15.937Z,47.60
2023-05-21T05:54:42.756Z,47.30
2023-05-21T05:57:09.515Z,47.20
2023-05-21T05:59:36.395Z,47.30
2023-05-21T06:02:03.359Z,47.20
2023-05-21T06:04:30.294Z,47.40
2023-05-21T06:07:00.556Z,47.50
2023-05-21T06:09:27.417Z,47.50
2023-05-21T06:11:54.402Z,48.10
2023-05-21T06:14:21.250Z,48.10
2023-05-21T06:16:48.014Z,48.10
2023-05-21T06:19:14.954Z,48.30
2023-05-21T06:21:41.954Z,48.30
2023-05-21T06:24:08.782Z,48.40
2023-05-21T06:26:35.847Z,48.20
2023-05-21T06:29:03.818Z,48.30
2023-05-21T06:31:33.104Z,48.30
2023-05-21T06:34:01.161Z,48.30
2023-05-21T06:36:30.061Z,48.10
2023-05-21T06:38:57.278Z,47.80
2023-05-21T06:41:24.478Z,47.90
2023-05-21T06:43:51.447Z,48.00
2023-05-21T06:46:18.348Z,48.90
2023-05-21T06:48:46.305Z,48.50
2023-05-21T06:51:13.416Z,48.10
2023-05-21T06:53:40.290Z,48.00
2023-05-21T06:56:07.410Z,47.80
2023-05-21T06:58:34.236Z,47.80
2023-05-21T07:01:01.776Z,47.90
2023-05-21T07:03:28.896Z,48.10
2023-05-21T07:05:57.332Z,48.20
2023-05-21T07:08:24.450Z,47.60
2023-05-21T07:10:51.401Z,47.70
2023-05-21T07:13:18.193Z,47.80
2023-05-21T07:15:45.061Z,47.80
2023-05-21T07:18:12.187Z,47.90
2023-05-21T07:20:39.076Z,47.80
2023-05-21T07:23:06.171Z,47.50
2023-05-21T07:25:32.943Z,47.70
2023-05-21T07:27:59.738Z,47.50
2023-05-21T07:30:26.580Z,47.60
2023-05-21T07:32:53.436Z,47.60
2023-05-21T07:35:20.508Z,47.50
2023-05-21T07:37:48.070Z,47.90
2023-05-21T07:40:14.986Z,47.80
2023-05-21T07:42:42.054Z,47.80
2023-05-21T07:45:09.326Z,47.70
2023-05-21T07:47:36.250Z,47.80
2023-05-21T07:50:03.242Z,48.10
2023-05-21T07:52:30.144Z,48.00
2023-05-21T07:54:57.000Z,47.80
2023-05-21T07:57:23.869Z,48.00
2023-05-21T07:59:51.151Z,47.80
2023-05-21T08:02:17.965Z,47.70
2023-05-21T08:04:44.769Z,48.10
2023-05-21T08:07:12.956Z,47.90
2023-05-21T08:09:39.769Z,47.90
2023-05-21T08:12:07.302Z,47.70
2023-05-21T08:14:34.317Z,47.80
2023-05-21T08:17:01.172Z,47.80
2023-05-21T08:19:28.083Z,47.80
2023-05-21T08:21:54.944Z,47.50
2023-05-21T08:24:21.688Z,47.40
2023-05-21T08:26:50.570Z,47.00
2023-05-21T08:29:17.437Z,47.10
2023-05-21T08:31:44.276Z,46.90
2023-05-21T08:34:11.234Z,47.00
2023-05-21T08:36:38.340Z,46.50
2023-05-21T08:39:05.168Z,46.70
2023-05-21T08:41:34.652Z,46.70
2023-05-21T08:44:02.699Z,46.80
2023-05-21T08:46:33.141Z,46.80
2023-05-21T08:49:02.910Z,46.80
2023-05-21T08:51:31.428Z,46.80
2023-05-21T08:53:59.851Z,46.60
2023-05-21T08:56:27.294Z,46.60
2023-05-21T08:58:54.184Z,47.30
2023-05-21T09:01:24.168Z,46.60
2023-05-21T09:04:05.000Z,46.60
2023-05-21T09:06:41.305Z,47.00
2023-05-21T09:09:18.269Z,47.20
2023-05-21T09:11:46.450Z,46.70
2023-05-21T09:14:14.583Z,46.90
2023-05-21T09:16:41.535Z,46.90
2023-05-21T09:19:08.476Z,46.80
2023-05-21T09:21:35.274Z,46.90
2023-05-21T09:24:02.245Z,46.60
2023-05-21T09:26:29.090Z,47.00
2023-05-21T09:29:00.459Z,47.10
2023-05-21T09:31:27.781Z,46.90
2023-05-21T09:33:55.741Z,46.90
2023-05-21T09:36:23.297Z,46.80
2023-05-21T09:38:51.918Z,46.70
2023-05-21T09:41:21.917Z,46.50
2023-05-21T09:43:49.551Z,46.50
2023-05-21T09:46:20.659Z,46.50
2023-05-21T09:48:47.483Z,46.20
2023-05-21T09:51:16.773Z,46.40
2023-05-21T09:54:00.009Z,46.30
2023-05-21T09:56:31.999Z,46.20
2023-05-21T09:59:01.410Z,46.10
2023-05-21T10:01:30.726Z,46.20
2023-05-21T10:03:58.936Z,46.10
2023-05-21T10:06:31.299Z,46.40
2023-05-21T10:09:04.725Z,46.30
2023-05-21T10:11:33.768Z,46.50
2023-05-21T10:14:09.371Z,46.40
2023-05-21T10:16:37.152Z,46.20
2023-05-21T10:19:05.316Z,46.20
2023-05-21T10:21:33.558Z,46.40
2023-05-21T10:24:03.005Z,46.20
2023-05-21T10:26:30.733Z,46.00
2023-05-21T10:29:00.277Z,45.90
2023-05-21T10:31:28.615Z,45.90
2023-05-21T10:33:56.163Z,45.80
2023-05-21T10:36:25.721Z,45.80
2023-05-21T10:38:53.380Z,45.80
2023-05-21T10:41:21.942Z,45.70
2023-05-21T10:44:08.999Z,45.60
2023-05-21T10:46:44.680Z,45.70
2023-05-21T10:49:42.022Z,45.70
2023-05-21T10:52:30.486Z,45.60
2023-05-21T10:55:13.926Z,45.40
2023-05-21T10:58:12.127Z,45.10
2023-05-21T11:00:39.317Z,45.20
2023-05-21T11:03:07.609Z,45.10
2023-05-21T11:05:42.156Z,45.10
2023-05-21T11:08:23.298Z,45.20
2023-05-21T11:10:55.024Z,45.30
2023-05-21T11:13:22.333Z,45.20
2023-05-21T11:15:58.216Z,45.40
2023-05-21T11:18:31.115Z,45.30
2023-05-21T11:21:08.773Z,44.80
2023-05-21T11:23:51.342Z,44.90
2023-05-21T11:26:23.196Z,45.00
2023-05-21T11:29:05.901Z,44.90
2023-05-21T11:31:38.778Z,44.80
2023-05-21T11:34:28.702Z,44.80
2023-05-21T11:37:23.127Z,44.50
2023-05-21T11:39:51.188Z,44.50
2023-05-21T11:42:31.838Z,44.40
2023-05-21T11:45:00.893Z,44.50
2023-05-21T11:47:29.410Z,44.80
2023-05-21T11:49:58.092Z,44.80
2023-05-21T11:52:25.468Z,44.70
2023-05-21T11:54:57.922Z,44.50
2023-05-21T11:57:31.298Z,44.70
2023-05-21T12:00:00.007Z,44.60
2023-05-21T12:02:32.658Z,45.20
2023-05-21T12:05:00.549Z,44.60
2023-05-21T12:07:31.943Z,44.70
2023-05-21T12:09:58.995Z,44.60
2023-05-21T12:12:32.816Z,44.80
2023-05-21T12:15:03.116Z,44.60
2023-05-21T12:17:31.756Z,44.70
2023-05-21T12:19:58.880Z,44.40
2023-05-21T12:22:27.929Z,44.30
2023-05-21T12:24:54.807Z,44.70
2023-05-21T12:27:22.359Z,44.60
2023-05-21T12:29:51.928Z,44.70
2023-05-21T12:32:21.011Z,44.80
2023-05-21T12:34:51.675Z,44.80
2023-05-21T12:37:23.361Z,44.90
2023-05-21T12:39:52.110Z,44.90
2023-05-21T12:42:37.400Z,44.60
2023-05-21T12:45:08.593Z,44.40
2023-05-21T12:47:35.980Z,44.30
2023-05-21T12:50:04.785Z,44.20
2023-05-21T12:52:31.670Z,44.00
2023-05-21T12:54:59.338Z,43.90
2023-05-21T12:57:37.154Z,43.50
2023-05-21T13:00:06.903Z,43.70
2023-05-21T13:02:35.966Z,43.70
2023-05-21T13:05:10.664Z,43.60
2023-05-21T13:07:39.297Z,43.50
2023-05-21T13:10:07.242Z,43.30
2023-05-21T13:12:34.763Z,43.40
2023-05-21T13:15:04.041Z,43.70
2023-05-21T13:17:31.069Z,43.50
2023-05-21T13:20:12.359Z,43.40
2023-05-21T13:22:43.645Z,43.70
2023-05-21T13:25:11.727Z,43.80
2023-05-21T13:27:39.590Z,43.60
2023-05-21T13:30:07.733Z,43.10
2023-05-21T13:32:34.965Z,42.90
2023-05-21T13:35:01.949Z,42.70
2023-05-21T13:37:28.748Z,42.70
2023-05-21T13:39:55.586Z,42.60
2023-05-21T13:42:22.446Z,42.40
2023-05-21T13:44:49.874Z,42.40
2023-05-21T13:47:16.899Z,42.40
2023-05-21T13:49:43.717Z,42.40
2023-05-21T13:52:10.642Z,42.20
2023-05-21T13:54:37.560Z,42.10
2023-05-21T13:57:04.472Z,41.80
2023-05-21T13:59:33.420Z,41.80
2023-05-21T14:02:00.920Z,41.90
2023-05-21T14:04:28.048Z,42.00
2023-05-21T14:06:54.999Z,42.00
2023-05-21T14:09:23.403Z,42.00
2023-05-21T14:11:50.889Z,42.00
2023-05-21T14:14:19.123Z,42.10
2023-05-21T14:16:49.675Z,41.80
2023-05-21T14:19:16.731Z,41.80
2023-05-21T14:21:43.899Z,41.30
2023-05-21T14:24:10.729Z,41.30
2023-05-21T14:26:40.419Z,41.10
2023-05-21T14:29:07.580Z,41.10
2023-05-21T14:31:34.460Z,40.80
2023-05-21T14:34:02.961Z,41.00
2023-05-21T14:36:30.235Z,41.00
2023-05-21T14:38:57.109Z,40.80
2023-05-21T14:41:27.770Z,40.80
2023-05-21T14:43:54.902Z,41.00
2023-05-21T14:46:22.212Z,40.80
2023-05-21T14:48:49.180Z,40.80
2023-05-21T14:51:16.146Z,40.50
2023-05-21T14:53:43.088Z,40.60
2023-05-21T14:56:10.124Z,40.70
2023-05-21T14:58:36.913Z,40.60
2023-05-21T15:01:06.735Z,40.70
2023-05-21T15:03:34.077Z,40.70
2023-05-21T15:06:01.103Z,40.80
2023-05-21T15:08:27.898Z,40.50
2023-05-21T15:10:54.846Z,40.50
2023-05-21T15:13:21.761Z,40.20
2023-05-21T15:15:49.404Z,40.10
2023-05-21T15:18:16.357Z,40.10
2023-05-21T15:20:43.211Z,40.10
2023-05-21T15:23:16.981Z,40.20
2023-05-21T15:25:45.342Z,40.20
2023-05-21T15:28:12.585Z,40.10
2023-05-21T15:30:39.907Z,40.40
2023-05-21T15:33:06.726Z,40.50
2023-05-21T15:35:34.955Z,40.50
2023-05-21T15:38:02.130Z,40.40
2023-05-21T15:40:28.944Z,40.10
2023-05-21T15:42:55.803Z,40.20
2023-05-21T15:45:22.634Z,40.10
2023-05-21T15:47:49.522Z,40.00
2023-05-21T15:50:16.449Z,39.70
2023-05-21T15:52:43.319Z,39.60
2023-05-21T15:55:10.253Z,40.30
2023-05-21T15:57:37.087Z,39.50
2023-05-21T16:00:04.991Z,39.40
2023-05-21T16:02:32.012Z,39.50
2023-05-21T16:04:58.983Z,39.10
2023-05-21T16:07:25.867Z,39.30
2023-05-21T16:09:52.720Z,39.40
2023-05-21T16:12:19.564Z,39.50
2023-05-21T16:14:49.962Z,39.30
2023-05-21T16:17:17.258Z,39.30
2023-05-21T16:19:44.108Z,39.10
2023-05-21T16:22:11.119Z,39.20
2023-05-21T16:24:38.017Z,39.20
2023-05-21T16:27:05.095Z,39.10
2023-05-21T16:29:32.160Z,39.00
2023-05-21T16:31:59.066Z,39.40
2023-05-21T16:34:25.989Z,39.70
2023-05-21T16:36:52.911Z,39.70
2023-05-21T16:39:19.829Z,40.20
2023-05-21T16:41:46.639Z,40.20
2023-05-21T16:44:14.056Z,40.30
2023-05-21T16:46:40.972Z,40.40
2023-05-21T16:49:07.856Z,40.60
2023-05-21T16:51:34.797Z,40.80
2023-05-21T16:54:04.181Z,40.90
2023-05-21T16:56:31.514Z,40.90
2023-05-21T16:58:58.360Z,41.00
2023-05-21T17:01:25.507Z,41.20
2023-05-21T17:03:52.979Z,41.30
2023-05-21T17:06:20.076Z,41.50
2023-05-21T17:08:47.282Z,41.80
2023-05-21T17:11:14.139Z,42.10
2023-05-21T17:13:41.109Z,42.20
2023-05-21T17:16:08.038Z,42.20
2023-05-21T17:18:34.944Z,42.20
2023-05-21T17:21:01.789Z,42.20
2023-05-21T17:23:28.633Z,42.20
2023-05-21T17:25:55.499Z,42.20
2023-05-21T17:28:22.340Z,42.10
2023-05-21T17:30:49.741Z,42.40
2023-05-21T17:33:16.945Z,42.50
2023-05-21T17:35:44.172Z,42.70
2023-05-21T17:38:11.047Z,42.80
2023-05-21T17:40:37.897Z,42.70
2023-05-21T17:43:05.243Z,42.80
2023-05-21T17:45:32.301Z,42.90
2023-05-21T17:48:00.470Z,43.10
2023-05-21T17:50:27.826Z,43.10
2023-05-21T17:52:54.750Z,43.20
2023-05-21T17:55:21.651Z,43.10
2023-05-21T17:57:48.526Z,43.20
2023-05-21T18:00:15.487Z,43.10
2023-05-21T18:02:42.536Z,43.20
2023-05-21T18:05:09.433Z,43.10
2023-05-21T18:07:37.207Z,43.20
2023-05-21T18:10:04.350Z,43.20
2023-05-21T18:12:31.197Z,43.20
2023-05-21T18:14:58.061Z,43.30
2023-05-21T18:17:24.952Z,43.50
2023-05-21T18:19:51.819Z,43.50
2023-05-21T18:22:18.639Z,43.50
2023-05-21T18:24:46.247Z,43.50
2023-05-21T18:27:13.539Z,43.40
2023-05-21T18:29:40.489Z,43.50
2023-05-21T18:32:07.898Z,43.50
2023-05-21T18:34:34.827Z,43.40
2023-05-21T18:37:01.839Z,43.30
2023-05-21T18:39:28.664Z,43.30
2023-05-21T18:42:11.510Z,43.50
2023-05-21T18:44:40.107Z,43.40
2023-05-21T18:47:07.734Z,43.40
2023-05-21T18:49:36.131Z,43.20
2023-05-21T18:52:04.110Z,43.20
2023-05-21T18:54:31.153Z,43.20
2023-05-21T18:57:00.423Z,42.90
2023-05-21T18:59:28.649Z,42.40
2023-05-21T19:01:55.721Z,42.40
2023-05-21T19:04:22.732Z,42.40
2023-05-21T19:06:49.684Z,42.30
2023-05-21T19:09:19.103Z,42.30
2023-05-21T19:11:46.051Z,42.20
2023-05-21T19:14:13.030Z,42.20
2023-05-21T19:16:39.807Z,42.20
2023-05-21T19:19:06.757Z,42.20
2023-05-21T19:21:33.853Z,42.20
2023-05-21T19:24:01.270Z,42.80
2023-05-21T19:26:28.167Z,42.60
2023-05-21T19:28:55.479Z,42.90
2023-05-21T19:31:23.354Z,43.00
2023-05-21T19:33:50.619Z,43.00
2023-05-21T19:36:18.472Z,42.90
2023-05-21T19:38:49.447Z,42.90
2023-05-21T19:41:17.064Z,43.00
2023-05-21T19:43:44.679Z,43.30
2023-05-21T19:46:11.687Z,43.60
2023-05-21T19:48:38.706Z,43.70
2023-05-21T19:51:05.920Z,44.10
2023-05-21T19:53:32.833Z,44.30
2023-05-21T19:56:00.033Z,44.10
2023-05-21T19:58:29.663Z,44.10
2023-05-21T20:00:59.241Z,44.00
2023-05-21T20:03:26.844Z,45.00
2023-05-21T20:05:54.537Z,44.90
2023-05-21T20:08:21.711Z,45.00
2023-05-21T20:10:51.345Z,45.30
2023-05-21T20:13:19.275Z,45.30
2023-05-21T20:15:48.004Z,45.40
2023-05-21T20:18:15.552Z,45.50
2023-05-21T20:20:42.989Z,45.60
2023-05-21T20:23:09.867Z,45.60
2023-05-21T20:25:36.875Z,45.60
2023-05-21T20:28:05.297Z,45.00
2023-05-21T20:30:34.238Z,44.90
2023-05-21T20:33:02.461Z,45.20
2023-05-21T20:35:29.418Z,45.20
2023-05-21T20:37:56.713Z,45.10
2023-05-21T20:40:23.626Z,45.10
2023-05-21T20:42:53.593Z,45.00
2023-05-21T20:45:21.142Z,45.30
2023-05-21T20:47:49.702Z,45.40
2023-05-21T20:50:17.827Z,45.60
2023-05-21T20:52:47.083Z,46.00
2023-05-21T20:55:14.767Z,46.20
2023-05-21T20:57:42.167Z,46.20
2023-05-21T21:00:11.640Z,46.30
2023-05-21T21:02:38.873Z,46.50
2023-05-21T21:05:06.470Z,46.50
2023-05-21T21:07:34.325Z,46.50
2023-05-21T21:10:01.488Z,46.30
2023-05-21T21:12:28.609Z,46.20
2023-05-21T21:14:55.786Z,45.70
2023-05-21T21:17:23.136Z,45.60
2023-05-21T21:19:50.177Z,45.60
2023-05-21T21:22:18.353Z,45.80
2023-05-21T21:24:45.640Z,46.60
2023-05-21T21:27:12.507Z,47.30
2023-05-21T21:29:39.387Z,47.90
2023-05-21T21:32:06.691Z,48.00
2023-05-21T21:34:33.464Z,48.20
2023-05-21T21:37:00.301Z,48.70
2023-05-21T21:39:27.144Z,48.70
2023-05-21T21:41:54.180Z,48.80
2023-05-21T21:44:21.294Z,48.80
2023-05-21T21:46:48.318Z,48.70
2023-05-21T21:49:17.244Z,48.80
2023-05-21T21:51:44.661Z,48.80
2023-05-21T21:54:11.942Z,48.80
2023-05-21T21:56:38.782Z,48.80
2023-05-21T21:59:05.728Z,48.90
2023-05-21T22:01:32.822Z,48.80
2023-05-21T22:03:59.714Z,48.70
2023-05-21T22:06:27.672Z,48.70
2023-05-21T22:08:54.990Z,48.70
2023-05-21T22:11:22.011Z,48.80
2023-05-21T22:13:48.984Z,48.90
2023-05-21T22:16:16.110Z,48.90
2023-05-21T22:18:43.034Z,48.90
2023-05-21T22:21:10.983Z,49.00
2023-05-21T22:23:38.699Z,48.90
2023-05-21T22:26:08.941Z,49.10
2023-05-21T22:28:35.953Z,49.30
2023-05-21T22:31:03.206Z,49.50
2023-05-21T22:33:30.246Z,49.50
2023-05-21T22:35:57.193Z,49.80
2023-05-21T22:38:24.539Z,49.80
2023-05-21T22:40:51.497Z,49.90
2023-05-21T22:43:18.346Z,50.10
2023-05-21T22:45:45.186Z,50.10
2023-05-21T22:48:12.117Z,50.00
2023-05-21T22:50:39.294Z,50.10
2023-05-21T22:53:06.889Z,50.20
2023-05-21T22:55:33.755Z,50.30
2023-05-21T22:58:00.748Z,50.30
2023-05-21T23:00:27.549Z,50.50
2023-05-21T23:02:54.970Z,50.40
2023-05-21T23:05:22.364Z,50.50
2023-05-21T23:07:49.663Z,50.60
2023-05-21T23:10:16.614Z,51.20
2023-05-21T23:12:43.564Z,50.50
2023-05-21T23:15:10.871Z,50.60
2023-05-21T23:17:38.448Z,50.50
2023-05-21T23:20:07.180Z,50.50
2023-05-21T23:22:34.782Z,50.50
2023-05-21T23:25:01.738Z,51.10
2023-05-21T23:27:29.262Z,50.50
2023-05-21T23:29:56.422Z,50.50
2023-05-21T23:32:23.625Z,50.50
2023-05-21T23:34:50.825Z,50.60
2023-05-21T23:37:17.829Z,50.60
2023-05-21T23:39:48.187Z,50.60
2023-05-21T23:42:18.381Z,50.80
2023-05-21T23:44:45.414Z,50.70
2023-05-21T23:47:12.237Z,50.60
2023-05-21T23:49:39.686Z,50.70
2023-05-21T23:52:07.110Z,50.70
2023-05-21T23:54:34.065Z,50.60
2023-05-21T23:57:02.040Z,50.80
2023-05-21T23:59:29.187Z,50.70
